MSC Orchestra — 3EJF3 — position and weather

sailwx.info

Track history (hours):
 
Tides and Currents Weather Stations Pressure Air Temp Water Temp Dewpoint Dewpoint Depression Visibility Wind Speed Wind Dir Waves Ship Positions

MSC Orchestra

Last reported at 2017-Jul-22 08:30 UTC. Time now 2017-Jul-22 08:47 UTC.
Position N 44°06' E 009°50'.

Length 294 m; draft 7.7 m.

Type: Ship. MMSI: 372497000.

Date/timePositionNaut miles runAvg speedWind from/ knotsBaromVisibWave heightAir tempDewpointWater temp
2017-Jul-22 08:30N 44°06' E 009°50'0 0.0
2017-Jul-22 07:57N 44°06' E 009°50'0 0.0
2017-Jul-22 07:30N 44°06' E 009°50'0 0.0
2017-Jul-22 07:00N 44°06' E 009°50'0 0.0
2017-Jul-22 06:30N 44°06' E 009°50'0 0.0
2017-Jul-22 05:59N 44°06' E 009°50'0 0.0
2017-Jul-22 05:29N 44°06' E 009°50'0 0.0
2017-Jul-22 04:59N 44°06' E 009°50'0 1.0
2017-Jul-22 04:30N 44°06' E 009°51'3 6.4
2017-Jul-22 04:00N 44°03' E 009°52'612.4
2017-Jul-22 03:31N 43°58' E 009°56'815.7
2017-Jul-22 03:01N 43°51' E 009°51'816.2
2017-Jul-22 02:30N 43°44' E 009°46'816.2
2017-Jul-22 02:01N 43°36' E 009°41'816.0
2017-Jul-22 01:31N 43°28' E 009°41'816.9
2017-Jul-22 01:01N 43°21' E 009°46'816.6
2017-Jul-22 00:31N 43°14' E 009°52'816.7
2017-Jul-22 00:00N 43°07' E 009°58'815.8
2017-Jul-21 23:31N 42°59' E 010°01'816.5
2017-Jul-21 23:00N 42°51' E 010°01'816.5
2017-Jul-21 22:31N 42°43' E 010°03'1216.8
2017-Jul-21 21:49N 42°35' E 010°16'516.8
2017-Jul-21 21:31N 42°32' E 010°22'1116.9
2017-Jul-21 20:53N 42°26' E 010°33'2916.7
2017-Jul-21 19:11N 42°09' E 011°04'317.1
2017-Jul-21 19:00N 42°08' E 011°07'23 1.5
2017-Jul-21 04:05N 42°03' E 011°38'114.1
2017-Jul-21 04:01N 42°03' E 011°37'714.4
2017-Jul-21 03:30N 42°00' E 011°28'815.6
2017-Jul-21 02:59N 41°57' E 011°18'815.1
2017-Jul-21 02:29N 41°54' E 011°08'715.2
2017-Jul-21 02:00N 41°51' E 010°59'815.4
2017-Jul-21 01:30N 41°49' E 010°49'815.3
2017-Jul-21 01:00N 41°46' E 010°40'1015.4
2017-Jul-21 00:21N 41°42' E 010°28'515.6
2017-Jul-21 00:00N 41°40' E 010°21'915.7
2017-Jul-20 23:28N 41°37' E 010°10'715.4
2017-Jul-20 23:01N 41°34' E 010°02'815.6
2017-Jul-20 22:30N 41°31' E 009°52'815.9
2017-Jul-20 22:00N 41°28' E 009°42'916.0
2017-Jul-20 21:27N 41°25' E 009°31'715.8
2017-Jul-20 21:00N 41°22' E 009°23'44 3.5
2017-Jul-20 08:29N 41°48' E 008°35'1215.6
2017-Jul-20 07:44N 41°45' E 008°20'817.7
2017-Jul-20 07:17N 41°44' E 008°09'1317.7
2017-Jul-20 06:35N 41°43' E 007°53'517.8
2017-Jul-20 06:17N 41°42' E 007°45'718.2
2017-Jul-20 05:54N 41°42' E 007°37'818.7
2017-Jul-20 05:30N 41°41' E 007°26'1318.5
2017-Jul-20 04:49N 41°40' E 007°09'618.4
2017-Jul-20 04:30N 41°39' E 007°02'918.4
2017-Jul-20 04:01N 41°38' E 006°50'918.4
2017-Jul-20 03:30N 41°37' E 006°37'1018.5
2017-Jul-20 02:58N 41°36' E 006°24'818.5
2017-Jul-20 02:30N 41°35' E 006°13'918.5
2017-Jul-20 02:00N 41°34' E 006°01'918.8
2017-Jul-20 01:30N 41°33' E 005°48'918.9
2017-Jul-20 01:01N 41°32' E 005°36'1019.0
2017-Jul-20 00:30N 41°31' E 005°23'918.8
2017-Jul-20 00:00N 41°30' E 005°10'918.8
2017-Jul-19 23:30N 41°29' E 004°58'918.8
2017-Jul-19 23:00N 41°29' E 004°45'918.6
2017-Jul-19 22:30N 41°28' E 004°33'918.8
2017-Jul-19 22:00N 41°26' E 004°21'918.9
2017-Jul-19 21:31N 41°26' E 004°08'1019.2
2017-Jul-19 21:01N 41°25' E 003°55'1019.2
2017-Jul-19 20:30N 41°24' E 003°43'918.8
2017-Jul-19 20:00N 41°23' E 003°30'918.6
2017-Jul-19 19:30N 41°22' E 003°18'1018.5
2017-Jul-19 18:59N 41°21' E 003°05'1018.4
2017-Jul-19 18:26N 41°19' E 002°52'918.7
2017-Jul-19 17:57N 41°18' E 002°40'818.6
2017-Jul-19 17:30N 41°17' E 002°29'1018.7
2017-Jul-19 16:59N 41°16' E 002°16'612.0
2017-Jul-19 16:29N 41°20' E 002°10'2 3.6
2017-Jul-19 15:59N 41°22' E 002°11'0 0.0
2017-Jul-19 14:56N 41°22' E 002°11'0 0.0
2017-Jul-19 14:19N 41°22' E 002°11'0 0.0
2017-Jul-19 13:07N 41°22' E 002°11'0 0.0
2017-Jul-19 11:57N 41°22' E 002°11'0 0.0
2017-Jul-19 10:48N 41°22' E 002°11'0 0.0
2017-Jul-19 10:12N 41°22' E 002°11'0 0.0
2017-Jul-19 10:00N 41°22' E 002°11'0 0.0
2017-Jul-19 09:29N 41°22' E 002°11'0 0.0
2017-Jul-19 08:59N 41°22' E 002°11'0 0.0
2017-Jul-19 08:17N 41°22' E 002°11'0 0.0
2017-Jul-19 07:23N 41°22' E 002°11'0 0.0
2017-Jul-19 06:56N 41°22' E 002°11'1 2.5
2017-Jul-19 06:29N 41°21' E 002°10'7 8.9
2017-Jul-19 05:39N 41°13' E 002°11'317.3
2017-Jul-19 05:27N 41°10' E 002°11'817.8
2017-Jul-19 05:00N 41°02' E 002°11'917.9
2017-Jul-19 04:30N 40°53' E 002°12'917.7
2017-Jul-19 04:00N 40°44' E 002°12'918.1
2017-Jul-19 03:30N 40°35' E 002°12'918.0
2017-Jul-19 03:00N 40°26' E 002°12'918.0
2017-Jul-19 02:30N 40°17' E 002°13'918.1
2017-Jul-19 02:00N 40°08' E 002°13'917.9
2017-Jul-19 01:30N 39°59' E 002°13'917.8
2017-Jul-19 01:00N 39°50' E 002°14'1017.9
2017-Jul-19 00:28N 39°40' E 002°15'817.7
2017-Jul-19 00:00N 39°33' E 002°17'918.3
2017-Jul-18 23:30N 39°26' E 002°26'816.2
2017-Jul-18 23:00N 39°28' E 002°36'510.4
2017-Jul-18 22:30N 39°33' E 002°38'0 0.5
2017-Jul-18 21:58N 39°33' E 002°38'0 0.0
2017-Jul-18 21:28N 39°33' E 002°38'0 0.0
2017-Jul-18 21:00N 39°33' E 002°38'0 0.0
2017-Jul-18 20:30N 39°33' E 002°38'0 0.0
2017-Jul-18 20:00N 39°33' E 002°38'0 0.0
2017-Jul-18 19:30N 39°33' E 002°38'0 0.0
2017-Jul-18 18:56N 39°33' E 002°38'0 0.0
2017-Jul-18 18:29N 39°33' E 002°38'0 0.0
2017-Jul-18 17:56N 39°33' E 002°38'0 0.0
2017-Jul-18 17:29N 39°33' E 002°38'0 0.0
2017-Jul-18 16:56N 39°33' E 002°38'0 0.0
2017-Jul-18 16:28N 39°33' E 002°38'0 0.0
2017-Jul-18 15:58N 39°33' E 002°38'0 0.0
2017-Jul-18 15:28N 39°33' E 002°38'0 0.0
2017-Jul-18 14:55N 39°33' E 002°38'0 0.0
2017-Jul-18 14:00N 39°33' E 002°38'0 0.0
2017-Jul-18 13:30N 39°33' E 002°38'0 0.0
2017-Jul-18 13:00N 39°33' E 002°38'0 0.0
2017-Jul-18 12:30N 39°33' E 002°38'0 0.0
2017-Jul-18 11:59N 39°33' E 002°38'0 0.2
2017-Jul-18 11:30N 39°33' E 002°38'3 5.4
2017-Jul-18 11:00N 39°30' E 002°38'918.0
2017-Jul-18 10:30N 39°25' E 002°29'1018.0
2017-Jul-18 09:57N 39°31' E 002°19'612.0
2017-Jul-18 09:30N 39°36' E 002°16'5 9.4
2017-Jul-18 09:00N 39°40' E 002°20'611.5
2017-Jul-18 08:30N 39°44' E 002°25'816.9
2017-Jul-18 08:00N 39°50' E 002°33'817.0
2017-Jul-18 07:30N 39°56' E 002°40'816.7
2017-Jul-18 07:01N 40°02' E 002°48'816.8
2017-Jul-18 06:30N 40°08' E 002°56'916.9
2017-Jul-18 06:00N 40°13' E 003°04'816.7
2017-Jul-18 05:30N 40°19' E 003°12'916.7
2017-Jul-18 04:59N 40°25' E 003°20'816.7
2017-Jul-18 04:30N 40°31' E 003°28'816.8
2017-Jul-18 04:00N 40°37' E 003°35'6616.7
2017-Jul-18 00:05N 41°23' E 004°37'217.0
2017-Jul-17 23:57N 41°25' E 004°39'817.0
2017-Jul-17 23:30N 41°30' E 004°47'1117.0
2017-Jul-17 22:51N 41°38' E 004°57'617.0
2017-Jul-17 22:30N 41°42' E 005°03'2417.1
2017-Jul-17 21:07N 41°58' E 005°26'417.3
2017-Jul-17 20:51N 42°01' E 005°30'2916.9
2017-Jul-17 19:07N 42°22' E 005°58'317.2
2017-Jul-17 18:55N 42°24' E 006°02'2116.8
2017-Jul-17 17:40N 42°39' E 006°22'316.9
2017-Jul-17 17:30N 42°41' E 006°25'817.0
2017-Jul-17 17:00N 42°47' E 006°33'917.1
2017-Jul-17 16:30N 42°53' E 006°42'816.9
2017-Jul-17 16:00N 42°59' E 006°49'917.9
2017-Jul-17 15:30N 43°08' E 006°51'917.7
2017-Jul-17 15:00N 43°16' E 006°55'917.3
2017-Jul-17 14:30N 43°25' E 006°58'714.9
2017-Jul-17 14:00N 43°32' E 007°01'0 0.3
2017-Jul-17 13:30N 43°32' E 007°01'0 0.0
2017-Jul-17 13:01N 43°32' E 007°01'0 0.0
2017-Jul-17 12:30N 43°32' E 007°01'0 0.0
2017-Jul-17 12:00N 43°32' E 007°01'0 0.0
2017-Jul-17 11:30N 43°32' E 007°01'0 0.0
2017-Jul-17 11:00N 43°32' E 007°01'0 0.1
2017-Jul-17 10:31N 43°32' E 007°01'0 0.0
2017-Jul-17 10:00N 43°32' E 007°01'0 0.0
2017-Jul-17 09:30N 43°32' E 007°01'0 0.0
2017-Jul-17 09:00N 43°32' E 007°01'0 0.0
2017-Jul-17 08:30N 43°32' E 007°01'0 0.0
2017-Jul-17 08:00N 43°32' E 007°01'0 0.0
2017-Jul-17 07:30N 43°32' E 007°01'0 0.0
2017-Jul-17 07:00N 43°32' E 007°01'0 0.0
2017-Jul-17 06:30N 43°32' E 007°01'0 0.0
2017-Jul-17 06:00N 43°32' E 007°01'0 0.0
2017-Jul-17 05:30N 43°32' E 007°01'0 0.1
2017-Jul-17 05:00N 43°32' E 007°01'2 3.6
2017-Jul-17 04:30N 43°30' E 007°00'3 6.6
2017-Jul-17 04:00N 43°27' E 007°03'4 7.3
2017-Jul-17 03:30N 43°28' E 007°08'4 8.4
2017-Jul-17 03:00N 43°29' E 007°13'5 9.1
2017-Jul-17 02:30N 43°30' E 007°19'4 8.9
2017-Jul-17 02:00N 43°30' E 007°25'4 8.9
2017-Jul-17 01:30N 43°31' E 007°31'4 8.7
2017-Jul-17 01:00N 43°32' E 007°37'4 8.5
2017-Jul-17 00:30N 43°33' E 007°43'4 8.7
2017-Jul-17 00:00N 43°35' E 007°49'5 8.9
2017-Jul-16 23:30N 43°36' E 007°55'5 9.3
2017-Jul-16 23:00N 43°37' E 008°01'5 9.7
2017-Jul-16 22:31N 43°39' E 008°07'5 9.5
2017-Jul-16 22:00N 43°41' E 008°13'5 9.4
2017-Jul-16 21:30N 43°44' E 008°18'5 9.3
2017-Jul-16 21:00N 43°47' E 008°22'5 9.3
2017-Jul-16 20:30N 43°51' E 008°26'5 9.4
2017-Jul-16 20:00N 43°55' E 008°30'5 9.5
2017-Jul-16 19:30N 43°58' E 008°35'5 9.5
2017-Jul-16 19:00N 44°02' E 008°39'5 9.4
2017-Jul-16 18:31N 44°06' E 008°43'5 9.3
2017-Jul-16 18:00N 44°09' E 008°47'5 9.3
2017-Jul-16 17:31N 44°13' E 008°51'5 9.3
2017-Jul-16 17:01N 44°17' E 008°55'5 9.1
2017-Jul-16 16:31N 44°21' E 008°57'4 8.2
2017-Jul-16 16:00N 44°24' E 008°55'0 0.6
2017-Jul-16 15:30N 44°25' E 008°55'0 0.0
2017-Jul-16 15:00N 44°25' E 008°55'0 0.0
2017-Jul-16 14:30N 44°25' E 008°55'0 0.0
2017-Jul-16 13:59N 44°25' E 008°55'0 0.0
2017-Jul-16 13:29N 44°25' E 008°55'0 0.0
2017-Jul-16 12:59N 44°25' E 008°55'0 0.0
2017-Jul-16 12:29N 44°25' E 008°55'0 0.0
2017-Jul-16 11:59N 44°25' E 008°55'0 0.0
2017-Jul-16 11:28N 44°25' E 008°55'0 0.0
2017-Jul-16 10:58N 44°25' E 008°55'0 0.0
2017-Jul-16 10:28N 44°25' E 008°55'0 0.0
2017-Jul-16 09:58N 44°25' E 008°55'0 0.0
2017-Jul-16 09:27N 44°25' E 008°55'0 0.0
2017-Jul-16 08:54N 44°25' E 008°55'0 0.0
2017-Jul-16 08:27N 44°25' E 008°55'0 0.0
2017-Jul-16 08:00N 44°25' E 008°55'0 0.0
2017-Jul-16 07:30N 44°25' E 008°55'0 0.0
2017-Jul-16 06:56N 44°25' E 008°55'0 0.0
2017-Jul-16 06:26N 44°25' E 008°55'0 0.0
2017-Jul-16 05:59N 44°25' E 008°55'1 1.2
2017-Jul-16 05:31N 44°24' E 008°55'2 4.1
2017-Jul-16 05:01N 44°23' E 008°57'3 5.0
2017-Jul-16 04:31N 44°20' E 008°59'3 6.5
2017-Jul-16 04:01N 44°17' E 008°59'4 7.7
2017-Jul-16 03:31N 44°13' E 008°60'4 8.4
2017-Jul-16 03:01N 44°09' E 008°60'3 6.1
2017-Jul-16 02:31N 44°06' E 009°00'3 6.3
2017-Jul-16 02:01N 44°03' E 009°00'3 6.2
2017-Jul-16 01:30N 43°60' E 009°01'3 6.3
2017-Jul-16 01:01N 43°57' E 009°01'3 6.3
2017-Jul-16 00:30N 43°54' E 009°01'3 6.2
2017-Jul-16 00:00N 43°50' E 009°01'3 6.1
2017-Jul-15 23:30N 43°47' E 009°02'3 5.7
2017-Jul-15 23:00N 43°46' E 009°06'3 6.2
2017-Jul-15 22:30N 43°47' E 009°10'3 6.8
2017-Jul-15 22:01N 43°49' E 009°14'3 6.5
2017-Jul-15 21:30N 43°50' E 009°18'3 6.5
2017-Jul-15 21:01N 43°51' E 009°23'3 6.4
2017-Jul-15 20:31N 43°52' E 009°27'3 6.5
2017-Jul-15 20:01N 43°53' E 009°31'3 6.7
2017-Jul-15 19:31N 43°55' E 009°35'3 6.7
2017-Jul-15 19:00N 43°56' E 009°40'3 6.7
2017-Jul-15 18:31N 43°57' E 009°44'3 6.5
2017-Jul-15 18:00N 43°58' E 009°48'4 7.2
2017-Jul-15 17:30N 44°01' E 009°52'5 9.7
2017-Jul-15 17:01N 44°06' E 009°51'1 1.7
2017-Jul-15 16:28N 44°06' E 009°50'0 0.0
2017-Jul-15 15:58N 44°06' E 009°50'0 0.0
2017-Jul-15 15:30N 44°06' E 009°50'0 0.0
2017-Jul-15 14:57N 44°06' E 009°50'0 0.0
2017-Jul-15 14:00N 44°06' E 009°50'0 0.0
2017-Jul-15 13:30N 44°06' E 009°50'0 0.0
2017-Jul-15 12:59N 44°06' E 009°50'0 0.0
2017-Jul-15 12:29N 44°06' E 009°50'0 0.0
2017-Jul-15 11:59N 44°06' E 009°50'0 0.0
2017-Jul-15 11:29N 44°06' E 009°50'0 0.0
2017-Jul-15 10:58N 44°06' E 009°50'0 0.0
2017-Jul-15 10:28N 44°06' E 009°50'0 0.0
2017-Jul-15 09:58N 44°06' E 009°50'0 0.0
2017-Jul-15 09:28N 44°06' E 009°50'0 0.0
2017-Jul-15 08:58N 44°06' E 009°50'0 0.0
2017-Jul-15 08:24N 44°06' E 009°50'0 0.0
2017-Jul-15 08:00N 44°06' E 009°50'0 0.0
2017-Jul-15 07:30N 44°06' E 009°50'0 0.0
2017-Jul-15 07:00N 44°06' E 009°50'0 0.0
2017-Jul-15 06:29N 44°06' E 009°50'0 0.0
2017-Jul-15 05:59N 44°06' E 009°50'0 0.0
2017-Jul-15 05:29N 44°06' E 009°50'0 0.0
2017-Jul-15 04:56N 44°06' E 009°50'1 1.2
2017-Jul-15 04:30N 44°06' E 009°51'3 6.2
2017-Jul-15 04:01N 44°03' E 009°52'713.2
2017-Jul-15 03:31N 43°58' E 009°57'815.7
2017-Jul-15 03:01N 43°51' E 009°51'815.1
2017-Jul-15 02:30N 43°44' E 009°46'816.1
2017-Jul-15 02:00N 43°37' E 009°41'815.3
2017-Jul-15 01:30N 43°30' E 009°39'816.5
2017-Jul-15 01:00N 43°22' E 009°44'816.0
2017-Jul-15 00:30N 43°16' E 009°50'816.4
2017-Jul-15 00:00N 43°08' E 009°56'816.4
2017-Jul-14 23:30N 43°01' E 009°60'816.4
2017-Jul-14 23:00N 42°53' E 010°00'816.5
2017-Jul-14 22:30N 42°44' E 010°02'1417.1
2017-Jul-14 21:42N 42°36' E 010°16'317.6
2017-Jul-14 21:30N 42°33' E 010°20'917.7
2017-Jul-14 21:00N 42°28' E 010°29'917.8
2017-Jul-14 20:29N 42°22' E 010°39'1517.3
2017-Jul-14 19:36N 42°12' E 010°55'716.0
2017-Jul-14 19:10N 42°08' E 011°03'316.2
2017-Jul-14 18:59N 42°08' E 011°06'17 1.1
2017-Jul-14 03:18N 41°59' E 011°26'414.6
2017-Jul-14 03:00N 41°58' E 011°20'714.6
2017-Jul-14 02:30N 41°55' E 011°11'714.4
2017-Jul-14 02:00N 41°53' E 011°02'714.5
2017-Jul-14 01:30N 41°50' E 010°53'714.3
2017-Jul-14 01:00N 41°47' E 010°44'2114.5
2017-Jul-13 23:35N 41°39' E 010°19'414.8
2017-Jul-13 23:20N 41°38' E 010°14'201 9.1
2017-Jul-13 01:17N 41°33' E 005°45'8719.9
2017-Jul-12 20:55N 41°24' E 003°49'819.6
2017-Jul-12 20:29N 41°23' E 003°38'1019.6
2017-Jul-12 20:00N 41°22' E 003°26'3618.6
2017-Jul-12 18:03N 41°18' E 002°38'116.9
2017-Jul-12 18:00N 41°18' E 002°36'817.0
2017-Jul-12 17:30N 41°18' E 002°25'917.0
2017-Jul-12 16:58N 41°16' E 002°13'5 9.7
2017-Jul-12 16:30N 41°20' E 002°10'2 2.0
2017-Jul-12 15:36N 41°22' E 002°11'0 0.0
2017-Jul-12 15:30N 41°22' E 002°11'0 0.0
2017-Jul-12 10:46N 41°22' E 002°11'  
Track history (hours):
 
Tides and Currents Weather Stations Pressure Air Temp Water Temp Dewpoint Dewpoint Depression Visibility Wind Speed Wind Dir Waves Ship Positions

MSC Orchestra

Last reported at 2017-Jul-22 08:30 UTC. Time now 2017-Jul-22 08:47 UTC.
Position N 44°06' E 009°50'.

Length 294 m; draft 7.7 m.

Type: Ship. MMSI: 372497000.

Date/timePositionNaut miles runAvg speedWind from/ knotsBaromVisibWave heightAir tempDewpointWater temp
2017-Jul-22 08:30N 44°06' E 009°50'0 0.0
2017-Jul-22 07:57N 44°06' E 009°50'0 0.0
2017-Jul-22 07:30N 44°06' E 009°50'0 0.0
2017-Jul-22 07:00N 44°06' E 009°50'0 0.0
2017-Jul-22 06:30N 44°06' E 009°50'0 0.0
2017-Jul-22 05:59N 44°06' E 009°50'0 0.0
2017-Jul-22 05:29N 44°06' E 009°50'0 0.0
2017-Jul-22 04:59N 44°06' E 009°50'0 1.0
2017-Jul-22 04:30N 44°06' E 009°51'3 6.4
2017-Jul-22 04:00N 44°03' E 009°52'612.4
2017-Jul-22 03:31N 43°58' E 009°56'815.7
2017-Jul-22 03:01N 43°51' E 009°51'816.2
2017-Jul-22 02:30N 43°44' E 009°46'816.2
2017-Jul-22 02:01N 43°36' E 009°41'816.0
2017-Jul-22 01:31N 43°28' E 009°41'816.9
2017-Jul-22 01:01N 43°21' E 009°46'816.6
2017-Jul-22 00:31N 43°14' E 009°52'816.7
2017-Jul-22 00:00N 43°07' E 009°58'815.8
2017-Jul-21 23:31N 42°59' E 010°01'816.5
2017-Jul-21 23:00N 42°51' E 010°01'816.5
2017-Jul-21 22:31N 42°43' E 010°03'1216.8
2017-Jul-21 21:49N 42°35' E 010°16'516.8
2017-Jul-21 21:31N 42°32' E 010°22'1116.9
2017-Jul-21 20:53N 42°26' E 010°33'2916.7
2017-Jul-21 19:11N 42°09' E 011°04'317.1
2017-Jul-21 19:00N 42°08' E 011°07'23 1.5
2017-Jul-21 04:05N 42°03' E 011°38'114.1
2017-Jul-21 04:01N 42°03' E 011°37'714.4
2017-Jul-21 03:30N 42°00' E 011°28'815.6
2017-Jul-21 02:59N 41°57' E 011°18'815.1
2017-Jul-21 02:29N 41°54' E 011°08'715.2
2017-Jul-21 02:00N 41°51' E 010°59'815.4
2017-Jul-21 01:30N 41°49' E 010°49'815.3
2017-Jul-21 01:00N 41°46' E 010°40'1015.4
2017-Jul-21 00:21N 41°42' E 010°28'515.6
2017-Jul-21 00:00N 41°40' E 010°21'915.7
2017-Jul-20 23:28N 41°37' E 010°10'715.4
2017-Jul-20 23:01N 41°34' E 010°02'815.6
2017-Jul-20 22:30N 41°31' E 009°52'815.9
2017-Jul-20 22:00N 41°28' E 009°42'916.0
2017-Jul-20 21:27N 41°25' E 009°31'715.8
2017-Jul-20 21:00N 41°22' E 009°23'44 3.5
2017-Jul-20 08:29N 41°48' E 008°35'1215.6
2017-Jul-20 07:44N 41°45' E 008°20'817.7
2017-Jul-20 07:17N 41°44' E 008°09'1317.7
2017-Jul-20 06:35N 41°43' E 007°53'517.8
2017-Jul-20 06:17N 41°42' E 007°45'718.2
2017-Jul-20 05:54N 41°42' E 007°37'818.7
2017-Jul-20 05:30N 41°41' E 007°26'1318.5
2017-Jul-20 04:49N 41°40' E 007°09'618.4
2017-Jul-20 04:30N 41°39' E 007°02'918.4
2017-Jul-20 04:01N 41°38' E 006°50'918.4
2017-Jul-20 03:30N 41°37' E 006°37'1018.5
2017-Jul-20 02:58N 41°36' E 006°24'818.5
2017-Jul-20 02:30N 41°35' E 006°13'918.5
2017-Jul-20 02:00N 41°34' E 006°01'918.8
2017-Jul-20 01:30N 41°33' E 005°48'918.9
2017-Jul-20 01:01N 41°32' E 005°36'1019.0
2017-Jul-20 00:30N 41°31' E 005°23'918.8
2017-Jul-20 00:00N 41°30' E 005°10'918.8
2017-Jul-19 23:30N 41°29' E 004°58'918.8
2017-Jul-19 23:00N 41°29' E 004°45'918.6
2017-Jul-19 22:30N 41°28' E 004°33'918.8
2017-Jul-19 22:00N 41°26' E 004°21'918.9
2017-Jul-19 21:31N 41°26' E 004°08'1019.2
2017-Jul-19 21:01N 41°25' E 003°55'1019.2
2017-Jul-19 20:30N 41°24' E 003°43'918.8
2017-Jul-19 20:00N 41°23' E 003°30'918.6
2017-Jul-19 19:30N 41°22' E 003°18'1018.5
2017-Jul-19 18:59N 41°21' E 003°05'1018.4
2017-Jul-19 18:26N 41°19' E 002°52'918.7
2017-Jul-19 17:57N 41°18' E 002°40'818.6
2017-Jul-19 17:30N 41°17' E 002°29'1018.7
2017-Jul-19 16:59N 41°16' E 002°16'612.0
2017-Jul-19 16:29N 41°20' E 002°10'2 3.6
2017-Jul-19 15:59N 41°22' E 002°11'0 0.0
2017-Jul-19 14:56N 41°22' E 002°11'0 0.0
2017-Jul-19 14:19N 41°22' E 002°11'0 0.0
2017-Jul-19 13:07N 41°22' E 002°11'0 0.0
2017-Jul-19 11:57N 41°22' E 002°11'0 0.0
2017-Jul-19 10:48N 41°22' E 002°11'0 0.0
2017-Jul-19 10:12N 41°22' E 002°11'0 0.0
2017-Jul-19 10:00N 41°22' E 002°11'0 0.0
2017-Jul-19 09:29N 41°22' E 002°11'0 0.0
2017-Jul-19 08:59N 41°22' E 002°11'0 0.0
2017-Jul-19 08:17N 41°22' E 002°11'0 0.0
2017-Jul-19 07:23N 41°22' E 002°11'0 0.0
2017-Jul-19 06:56N 41°22' E 002°11'1 2.5
2017-Jul-19 06:29N 41°21' E 002°10'7 8.9
2017-Jul-19 05:39N 41°13' E 002°11'317.3
2017-Jul-19 05:27N 41°10' E 002°11'817.8
2017-Jul-19 05:00N 41°02' E 002°11'917.9
2017-Jul-19 04:30N 40°53' E 002°12'917.7
2017-Jul-19 04:00N 40°44' E 002°12'918.1
2017-Jul-19 03:30N 40°35' E 002°12'918.0
2017-Jul-19 03:00N 40°26' E 002°12'918.0
2017-Jul-19 02:30N 40°17' E 002°13'918.1
2017-Jul-19 02:00N 40°08' E 002°13'917.9
2017-Jul-19 01:30N 39°59' E 002°13'917.8
2017-Jul-19 01:00N 39°50' E 002°14'1017.9
2017-Jul-19 00:28N 39°40' E 002°15'817.7
2017-Jul-19 00:00N 39°33' E 002°17'918.3
2017-Jul-18 23:30N 39°26' E 002°26'816.2
2017-Jul-18 23:00N 39°28' E 002°36'510.4
2017-Jul-18 22:30N 39°33' E 002°38'0 0.5
2017-Jul-18 21:58N 39°33' E 002°38'0 0.0
2017-Jul-18 21:28N 39°33' E 002°38'0 0.0
2017-Jul-18 21:00N 39°33' E 002°38'0 0.0
2017-Jul-18 20:30N 39°33' E 002°38'0 0.0
2017-Jul-18 20:00N 39°33' E 002°38'0 0.0
2017-Jul-18 19:30N 39°33' E 002°38'0 0.0
2017-Jul-18 18:56N 39°33' E 002°38'0 0.0
2017-Jul-18 18:29N 39°33' E 002°38'0 0.0
2017-Jul-18 17:56N 39°33' E 002°38'0 0.0
2017-Jul-18 17:29N 39°33' E 002°38'0 0.0
2017-Jul-18 16:56N 39°33' E 002°38'0 0.0
2017-Jul-18 16:28N 39°33' E 002°38'0 0.0
2017-Jul-18 15:58N 39°33' E 002°38'0 0.0
2017-Jul-18 15:28N 39°33' E 002°38'0 0.0
2017-Jul-18 14:55N 39°33' E 002°38'0 0.0
2017-Jul-18 14:00N 39°33' E 002°38'0 0.0
2017-Jul-18 13:30N 39°33' E 002°38'0 0.0
2017-Jul-18 13:00N 39°33' E 002°38'0 0.0
2017-Jul-18 12:30N 39°33' E 002°38'0 0.0
2017-Jul-18 11:59N 39°33' E 002°38'0 0.2
2017-Jul-18 11:30N 39°33' E 002°38'3 5.4
2017-Jul-18 11:00N 39°30' E 002°38'918.0
2017-Jul-18 10:30N 39°25' E 002°29'1018.0
2017-Jul-18 09:57N 39°31' E 002°19'612.0
2017-Jul-18 09:30N 39°36' E 002°16'5 9.4
2017-Jul-18 09:00N 39°40' E 002°20'611.5
2017-Jul-18 08:30N 39°44' E 002°25'816.9
2017-Jul-18 08:00N 39°50' E 002°33'817.0
2017-Jul-18 07:30N 39°56' E 002°40'816.7
2017-Jul-18 07:01N 40°02' E 002°48'816.8
2017-Jul-18 06:30N 40°08' E 002°56'916.9
2017-Jul-18 06:00N 40°13' E 003°04'816.7
2017-Jul-18 05:30N 40°19' E 003°12'916.7
2017-Jul-18 04:59N 40°25' E 003°20'816.7
2017-Jul-18 04:30N 40°31' E 003°28'816.8
2017-Jul-18 04:00N 40°37' E 003°35'6616.7
2017-Jul-18 00:05N 41°23' E 004°37'217.0
2017-Jul-17 23:57N 41°25' E 004°39'817.0
2017-Jul-17 23:30N 41°30' E 004°47'1117.0
2017-Jul-17 22:51N 41°38' E 004°57'617.0
2017-Jul-17 22:30N 41°42' E 005°03'2417.1
2017-Jul-17 21:07N 41°58' E 005°26'417.3
2017-Jul-17 20:51N 42°01' E 005°30'2916.9
2017-Jul-17 19:07N 42°22' E 005°58'317.2
2017-Jul-17 18:55N 42°24' E 006°02'2116.8
2017-Jul-17 17:40N 42°39' E 006°22'316.9
2017-Jul-17 17:30N 42°41' E 006°25'817.0
2017-Jul-17 17:00N 42°47' E 006°33'917.1
2017-Jul-17 16:30N 42°53' E 006°42'816.9
2017-Jul-17 16:00N 42°59' E 006°49'917.9
2017-Jul-17 15:30N 43°08' E 006°51'917.7
2017-Jul-17 15:00N 43°16' E 006°55'917.3
2017-Jul-17 14:30N 43°25' E 006°58'714.9
2017-Jul-17 14:00N 43°32' E 007°01'0 0.3
2017-Jul-17 13:30N 43°32' E 007°01'0 0.0
2017-Jul-17 13:01N 43°32' E 007°01'0 0.0
2017-Jul-17 12:30N 43°32' E 007°01'0 0.0
2017-Jul-17 12:00N 43°32' E 007°01'0 0.0
2017-Jul-17 11:30N 43°32' E 007°01'0 0.0
2017-Jul-17 11:00N 43°32' E 007°01'0 0.1
2017-Jul-17 10:31N 43°32' E 007°01'0 0.0
2017-Jul-17 10:00N 43°32' E 007°01'0 0.0
2017-Jul-17 09:30N 43°32' E 007°01'0 0.0
2017-Jul-17 09:00N 43°32' E 007°01'0 0.0
2017-Jul-17 08:30N 43°32' E 007°01'0 0.0
2017-Jul-17 08:00N 43°32' E 007°01'0 0.0
2017-Jul-17 07:30N 43°32' E 007°01'0 0.0
2017-Jul-17 07:00N 43°32' E 007°01'0 0.0
2017-Jul-17 06:30N 43°32' E 007°01'0 0.0
2017-Jul-17 06:00N 43°32' E 007°01'0 0.0
2017-Jul-17 05:30N 43°32' E 007°01'0 0.1
2017-Jul-17 05:00N 43°32' E 007°01'2 3.6
2017-Jul-17 04:30N 43°30' E 007°00'3 6.6
2017-Jul-17 04:00N 43°27' E 007°03'4 7.3
2017-Jul-17 03:30N 43°28' E 007°08'4 8.4
2017-Jul-17 03:00N 43°29' E 007°13'5 9.1
2017-Jul-17 02:30N 43°30' E 007°19'4 8.9
2017-Jul-17 02:00N 43°30' E 007°25'4 8.9
2017-Jul-17 01:30N 43°31' E 007°31'4 8.7
2017-Jul-17 01:00N 43°32' E 007°37'4 8.5
2017-Jul-17 00:30N 43°33' E 007°43'4 8.7
2017-Jul-17 00:00N 43°35' E 007°49'5 8.9
2017-Jul-16 23:30N 43°36' E 007°55'5 9.3
2017-Jul-16 23:00N 43°37' E 008°01'5 9.7
2017-Jul-16 22:31N 43°39' E 008°07'5 9.5
2017-Jul-16 22:00N 43°41' E 008°13'5 9.4
2017-Jul-16 21:30N 43°44' E 008°18'5 9.3
2017-Jul-16 21:00N 43°47' E 008°22'5 9.3
2017-Jul-16 20:30N 43°51' E 008°26'5 9.4
2017-Jul-16 20:00N 43°55' E 008°30'5 9.5
2017-Jul-16 19:30N 43°58' E 008°35'5 9.5
2017-Jul-16 19:00N 44°02' E 008°39'5 9.4
2017-Jul-16 18:31N 44°06' E 008°43'5 9.3
2017-Jul-16 18:00N 44°09' E 008°47'5 9.3
2017-Jul-16 17:31N 44°13' E 008°51'5 9.3
2017-Jul-16 17:01N 44°17' E 008°55'5 9.1
2017-Jul-16 16:31N 44°21' E 008°57'4 8.2
2017-Jul-16 16:00N 44°24' E 008°55'0 0.6
2017-Jul-16 15:30N 44°25' E 008°55'0 0.0
2017-Jul-16 15:00N 44°25' E 008°55'0 0.0
2017-Jul-16 14:30N 44°25' E 008°55'0 0.0
2017-Jul-16 13:59N 44°25' E 008°55'0 0.0
2017-Jul-16 13:29N 44°25' E 008°55'0 0.0
2017-Jul-16 12:59N 44°25' E 008°55'0 0.0
2017-Jul-16 12:29N 44°25' E 008°55'0 0.0
2017-Jul-16 11:59N 44°25' E 008°55'0 0.0
2017-Jul-16 11:28N 44°25' E 008°55'0 0.0
2017-Jul-16 10:58N 44°25' E 008°55'0 0.0
2017-Jul-16 10:28N 44°25' E 008°55'0 0.0
2017-Jul-16 09:58N 44°25' E 008°55'0 0.0
2017-Jul-16 09:27N 44°25' E 008°55'0 0.0
2017-Jul-16 08:54N 44°25' E 008°55'0 0.0
2017-Jul-16 08:27N 44°25' E 008°55'0 0.0
2017-Jul-16 08:00N 44°25' E 008°55'0 0.0
2017-Jul-16 07:30N 44°25' E 008°55'0 0.0
2017-Jul-16 06:56N 44°25' E 008°55'0 0.0
2017-Jul-16 06:26N 44°25' E 008°55'0 0.0
2017-Jul-16 05:59N 44°25' E 008°55'1 1.2
2017-Jul-16 05:31N 44°24' E 008°55'2 4.1
2017-Jul-16 05:01N 44°23' E 008°57'3 5.0
2017-Jul-16 04:31N 44°20' E 008°59'3 6.5
2017-Jul-16 04:01N 44°17' E 008°59'4 7.7
2017-Jul-16 03:31N 44°13' E 008°60'4 8.4
2017-Jul-16 03:01N 44°09' E 008°60'3 6.1
2017-Jul-16 02:31N 44°06' E 009°00'3 6.3
2017-Jul-16 02:01N 44°03' E 009°00'3 6.2
2017-Jul-16 01:30N 43°60' E 009°01'3 6.3
2017-Jul-16 01:01N 43°57' E 009°01'3 6.3
2017-Jul-16 00:30N 43°54' E 009°01'3 6.2
2017-Jul-16 00:00N 43°50' E 009°01'3 6.1
2017-Jul-15 23:30N 43°47' E 009°02'3 5.7
2017-Jul-15 23:00N 43°46' E 009°06'3 6.2
2017-Jul-15 22:30N 43°47' E 009°10'3 6.8
2017-Jul-15 22:01N 43°49' E 009°14'3 6.5
2017-Jul-15 21:30N 43°50' E 009°18'3 6.5
2017-Jul-15 21:01N 43°51' E 009°23'3 6.4
2017-Jul-15 20:31N 43°52' E 009°27'3 6.5
2017-Jul-15 20:01N 43°53' E 009°31'3 6.7
2017-Jul-15 19:31N 43°55' E 009°35'3 6.7
2017-Jul-15 19:00N 43°56' E 009°40'3 6.7
2017-Jul-15 18:31N 43°57' E 009°44'3 6.5
2017-Jul-15 18:00N 43°58' E 009°48'4 7.2
2017-Jul-15 17:30N 44°01' E 009°52'5 9.7
2017-Jul-15 17:01N 44°06' E 009°51'1 1.7
2017-Jul-15 16:28N 44°06' E 009°50'0 0.0
2017-Jul-15 15:58N 44°06' E 009°50'0 0.0
2017-Jul-15 15:30N 44°06' E 009°50'0 0.0
2017-Jul-15 14:57N 44°06' E 009°50'0 0.0
2017-Jul-15 14:00N 44°06' E 009°50'0 0.0
2017-Jul-15 13:30N 44°06' E 009°50'0 0.0
2017-Jul-15 12:59N 44°06' E 009°50'0 0.0
2017-Jul-15 12:29N 44°06' E 009°50'0 0.0
2017-Jul-15 11:59N 44°06' E 009°50'0 0.0
2017-Jul-15 11:29N 44°06' E 009°50'0 0.0
2017-Jul-15 10:58N 44°06' E 009°50'0 0.0
2017-Jul-15 10:28N 44°06' E 009°50'0 0.0
2017-Jul-15 09:58N 44°06' E 009°50'0 0.0
2017-Jul-15 09:28N 44°06' E 009°50'0 0.0
2017-Jul-15 08:58N 44°06' E 009°50'0 0.0
2017-Jul-15 08:24N 44°06' E 009°50'0 0.0
2017-Jul-15 08:00N 44°06' E 009°50'0 0.0
2017-Jul-15 07:30N 44°06' E 009°50'0 0.0
2017-Jul-15 07:00N 44°06' E 009°50'0 0.0
2017-Jul-15 06:29N 44°06' E 009°50'0 0.0
2017-Jul-15 05:59N 44°06' E 009°50'0 0.0
2017-Jul-15 05:29N 44°06' E 009°50'0 0.0
2017-Jul-15 04:56N 44°06' E 009°50'1 1.2
2017-Jul-15 04:30N 44°06' E 009°51'3 6.2
2017-Jul-15 04:01N 44°03' E 009°52'713.2
2017-Jul-15 03:31N 43°58' E 009°57'815.7
2017-Jul-15 03:01N 43°51' E 009°51'815.1
2017-Jul-15 02:30N 43°44' E 009°46'816.1
2017-Jul-15 02:00N 43°37' E 009°41'815.3
2017-Jul-15 01:30N 43°30' E 009°39'816.5
2017-Jul-15 01:00N 43°22' E 009°44'816.0
2017-Jul-15 00:30N 43°16' E 009°50'816.4
2017-Jul-15 00:00N 43°08' E 009°56'816.4
2017-Jul-14 23:30N 43°01' E 009°60'816.4
2017-Jul-14 23:00N 42°53' E 010°00'816.5
2017-Jul-14 22:30N 42°44' E 010°02'1417.1
2017-Jul-14 21:42N 42°36' E 010°16'317.6
2017-Jul-14 21:30N 42°33' E 010°20'917.7
2017-Jul-14 21:00N 42°28' E 010°29'917.8
2017-Jul-14 20:29N 42°22' E 010°39'1517.3
2017-Jul-14 19:36N 42°12' E 010°55'716.0
2017-Jul-14 19:10N 42°08' E 011°03'316.2
2017-Jul-14 18:59N 42°08' E 011°06'17 1.1
2017-Jul-14 03:18N 41°59' E 011°26'414.6
2017-Jul-14 03:00N 41°58' E 011°20'714.6
2017-Jul-14 02:30N 41°55' E 011°11'714.4
2017-Jul-14 02:00N 41°53' E 011°02'714.5
2017-Jul-14 01:30N 41°50' E 010°53'714.3
2017-Jul-14 01:00N 41°47' E 010°44'2114.5
2017-Jul-13 23:35N 41°39' E 010°19'414.8
2017-Jul-13 23:20N 41°38' E 010°14'201 9.1
2017-Jul-13 01:17N 41°33' E 005°45'8719.9
2017-Jul-12 20:55N 41°24' E 003°49'819.6
2017-Jul-12 20:29N 41°23' E 003°38'1019.6
2017-Jul-12 20:00N 41°22' E 003°26'3618.6
2017-Jul-12 18:03N 41°18' E 002°38'116.9
2017-Jul-12 18:00N 41°18' E 002°36'817.0
2017-Jul-12 17:30N 41°18' E 002°25'917.0
2017-Jul-12 16:58N 41°16' E 002°13'5 9.7
2017-Jul-12 16:30N 41°20' E 002°10'2 2.0
2017-Jul-12 15:36N 41°22' E 002°11'0 0.0
2017-Jul-12 15:30N 41°22' E 002°11'0 0.0
2017-Jul-12 10:46N 41°22' E 002°11'  

Dump ship's entire track history